createdAt,value
2019-03-06T00:02:20.379Z,53.05
2019-03-06T00:04:47.891Z,53.17
2019-03-06T00:07:15.319Z,53.32
2019-03-06T00:09:42.729Z,52.80
2019-03-06T00:12:10.115Z,52.88
2019-03-06T00:14:37.519Z,52.52
2019-03-06T00:17:04.942Z,52.37
2019-03-06T00:19:32.385Z,52.10
2019-03-06T00:22:00.233Z,51.81
2019-03-06T00:24:27.650Z,51.67
2019-03-06T00:26:55.169Z,51.27
2019-03-06T00:29:22.717Z,50.94
2019-03-06T00:31:50.111Z,50.80
2019-03-06T00:34:17.522Z,50.58
2019-03-06T00:36:44.981Z,50.60
2019-03-06T00:39:12.392Z,50.77
2019-03-06T00:41:39.847Z,50.70
2019-03-06T00:44:07.280Z,51.13
2019-03-06T00:46:34.696Z,51.36
2019-03-06T00:49:02.139Z,51.10
2019-03-06T00:51:29.547Z,51.29
2019-03-06T00:53:56.968Z,51.26
2019-03-06T00:56:24.476Z,51.61
2019-03-06T00:58:51.896Z,51.39
2019-03-06T01:01:19.549Z,51.17
2019-03-06T01:03:46.959Z,51.01
2019-03-06T01:06:14.377Z,51.25
2019-03-06T01:08:41.779Z,51.13
2019-03-06T01:11:09.210Z,51.59
2019-03-06T01:13:36.622Z,51.88
2019-03-06T01:16:04.067Z,52.83
2019-03-06T01:18:31.463Z,54.13
2019-03-06T01:20:59.019Z,54.66
2019-03-06T01:23:26.434Z,54.47
2019-03-06T01:25:53.860Z,54.35
2019-03-06T01:28:21.264Z,54.70
2019-03-06T01:30:48.671Z,55.21
2019-03-06T01:33:16.295Z,55.77
2019-03-06T01:35:45.434Z,55.98
2019-03-06T01:38:23.570Z,56.22
2019-03-06T01:40:56.516Z,55.96
2019-03-06T01:43:28.360Z,55.63
2019-03-06T01:45:55.776Z,55.11
2019-03-06T01:48:23.472Z,54.97
2019-03-06T01:50:50.865Z,54.96
2019-03-06T01:53:18.346Z,55.12
2019-03-06T01:55:45.764Z,55.28
2019-03-06T01:58:13.292Z,55.41
2019-03-06T02:00:40.705Z,55.68
2019-03-06T02:03:08.299Z,56.50
2019-03-06T02:05:35.718Z,56.94
2019-03-06T02:08:03.110Z,56.98
2019-03-06T02:10:30.524Z,56.86
2019-03-06T02:12:57.956Z,56.67
2019-03-06T02:15:25.362Z,56.47
2019-03-06T02:17:52.777Z,56.38
2019-03-06T02:20:20.258Z,56.39
2019-03-06T02:22:47.628Z,56.75
2019-03-06T02:25:15.108Z,57.19
2019-03-06T02:27:42.507Z,57.03
2019-03-06T02:30:09.909Z,56.83
2019-03-06T02:32:37.572Z,56.96
2019-03-06T02:35:05.053Z,56.76
2019-03-06T02:37:32.462Z,56.50
2019-03-06T02:39:59.863Z,56.48
2019-03-06T02:42:27.263Z,56.20
2019-03-06T02:44:54.663Z,56.40
2019-03-06T02:47:22.063Z,56.33
2019-03-06T02:49:49.463Z,56.20
2019-03-06T02:52:16.930Z,56.34
2019-03-06T02:54:44.306Z,55.92
2019-03-06T02:57:11.724Z,55.64
2019-03-06T02:59:39.128Z,56.14
2019-03-06T03:02:06.577Z,56.74
2019-03-06T03:04:34.820Z,57.13
2019-03-06T03:07:02.231Z,57.62
2019-03-06T03:09:29.675Z,57.65
2019-03-06T03:11:57.078Z,57.50
2019-03-06T03:14:24.518Z,57.60
2019-03-06T03:16:51.919Z,57.97
2019-03-06T03:19:19.339Z,58.16
2019-03-06T03:21:46.748Z,58.39
2019-03-06T03:24:14.216Z,58.54
2019-03-06T03:26:41.657Z,58.38
2019-03-06T03:29:09.052Z,58.23
2019-03-06T03:31:36.520Z,58.49
2019-03-06T03:34:03.943Z,58.52
2019-03-06T03:36:31.371Z,58.33
2019-03-06T03:38:58.807Z,57.87
2019-03-06T03:41:26.211Z,57.60
2019-03-06T03:43:53.710Z,57.48
2019-03-06T03:46:21.129Z,57.66
2019-03-06T03:48:48.564Z,58.14
2019-03-06T03:51:16.118Z,58.44
2019-03-06T03:53:43.544Z,58.92
2019-03-06T03:56:11.045Z,58.98
2019-03-06T03:58:38.458Z,58.77
2019-03-06T04:01:05.862Z,58.01
2019-03-06T04:03:33.275Z,58.03
2019-03-06T04:06:00.690Z,58.37
2019-03-06T04:08:28.118Z,58.54
2019-03-06T04:10:55.529Z,58.17
2019-03-06T04:13:22.992Z,57.79
2019-03-06T04:15:50.337Z,58.12
2019-03-06T04:18:17.801Z,58.61
2019-03-06T04:20:45.210Z,58.41
2019-03-06T04:23:12.689Z,58.30
2019-03-06T04:25:40.126Z,58.36
2019-03-06T04:28:07.567Z,58.33
2019-03-06T04:30:35.036Z,58.37
2019-03-06T04:33:03.431Z,58.68
2019-03-06T04:35:30.976Z,58.70
2019-03-06T04:37:58.366Z,58.53
2019-03-06T04:40:25.807Z,58.55
2019-03-06T04:42:53.207Z,58.40
2019-03-06T04:45:20.696Z,58.43
2019-03-06T04:47:48.166Z,58.74
2019-03-06T04:50:15.721Z,59.10
2019-03-06T04:52:43.155Z,58.89
2019-03-06T04:55:11.374Z,58.37
2019-03-06T04:57:38.773Z,57.81
2019-03-06T05:00:09.543Z,57.70
2019-03-06T05:02:36.937Z,57.12
2019-03-06T05:05:04.353Z,56.51
2019-03-06T05:07:31.782Z,56.64
2019-03-06T05:09:59.228Z,56.92
2019-03-06T05:12:26.627Z,56.57
2019-03-06T05:14:54.097Z,56.46
2019-03-06T05:17:24.003Z,56.45
2019-03-06T05:19:51.402Z,56.68
2019-03-06T05:22:18.830Z,56.66
2019-03-06T05:24:46.242Z,56.51
2019-03-06T05:27:13.638Z,56.55
2019-03-06T05:29:41.083Z,56.59
2019-03-06T05:32:20.316Z,56.61
2019-03-06T05:34:47.782Z,57.48
2019-03-06T05:37:21.145Z,58.15
2019-03-06T05:39:48.579Z,58.62
2019-03-06T05:42:15.990Z,58.98
2019-03-06T05:44:43.384Z,59.10
2019-03-06T05:47:10.773Z,59.35
2019-03-06T05:49:38.266Z,59.32
2019-03-06T05:52:05.756Z,58.99
2019-03-06T05:54:33.162Z,58.83
2019-03-06T05:57:00.571Z,58.82
2019-03-06T05:59:28.002Z,58.78
2019-03-06T06:01:56.452Z,58.50
2019-03-06T06:04:23.851Z,58.42
2019-03-06T06:06:51.474Z,58.54
2019-03-06T06:09:18.931Z,58.89
2019-03-06T06:11:46.341Z,58.93
2019-03-06T06:14:13.749Z,58.79
2019-03-06T06:16:41.193Z,58.67
2019-03-06T06:19:08.636Z,58.37
2019-03-06T06:24:30.168Z,57.60
2019-03-06T06:26:57.701Z,57.52
2019-03-06T06:29:25.165Z,57.94
2019-03-06T06:31:52.657Z,58.28
2019-03-06T06:34:20.057Z,58.07
2019-03-06T06:36:47.490Z,57.74
2019-03-06T06:39:14.927Z,57.76
2019-03-06T06:41:42.386Z,58.19
2019-03-06T06:44:09.794Z,58.47
2019-03-06T06:46:37.211Z,58.40
2019-03-06T06:49:04.669Z,58.72
2019-03-06T06:51:38.750Z,58.64
2019-03-06T06:54:07.208Z,58.54
2019-03-06T06:59:48.932Z,58.16
2019-03-06T07:02:31.711Z,57.87
2019-03-06T07:07:54.529Z,56.85
2019-03-06T07:10:27.543Z,56.83
2019-03-06T07:15:52.851Z,57.71
2019-03-06T07:18:20.267Z,57.26
2019-03-06T07:20:47.779Z,56.96
2019-03-06T07:23:27.237Z,57.22
2019-03-06T07:25:56.175Z,57.47
2019-03-06T07:28:27.167Z,57.80
2019-03-06T07:31:00.113Z,57.79
2019-03-06T07:33:29.073Z,57.72
2019-03-06T07:38:50.453Z,56.35
2019-03-06T07:41:22.560Z,55.96
2019-03-06T07:43:51.742Z,55.93
2019-03-06T07:49:17.632Z,56.59
2019-03-06T07:51:55.023Z,56.09
2019-03-06T07:54:23.143Z,55.84
2019-03-06T07:59:42.729Z,55.85
2019-03-06T08:02:11.054Z,55.77
2019-03-06T08:04:39.749Z,55.93
2019-03-06T08:07:15.979Z,55.65
2019-03-06T08:09:43.374Z,55.04
2019-03-06T08:12:14.776Z,54.29
2019-03-06T08:14:47.765Z,53.90
2019-03-06T08:17:18.578Z,53.60
2019-03-06T08:19:51.738Z,53.28
2019-03-06T08:22:23.046Z,53.12
2019-03-06T08:25:05.373Z,52.66
2019-03-06T08:27:32.903Z,52.28
2019-03-06T08:30:00.596Z,51.87
2019-03-06T08:32:28.192Z,51.84
2019-03-06T08:34:55.635Z,51.22
2019-03-06T08:37:23.147Z,50.87
2019-03-06T08:39:50.675Z,50.36
2019-03-06T08:42:18.189Z,49.71
2019-03-06T08:44:45.688Z,49.28
2019-03-06T08:47:26.078Z,48.26
2019-03-06T08:50:01.140Z,47.38
2019-03-06T08:52:28.644Z,46.48
2019-03-06T08:54:55.635Z,46.01
2019-03-06T08:57:28.273Z,45.54
2019-03-06T08:59:57.103Z,45.03
2019-03-06T09:02:29.681Z,44.46
2019-03-06T09:05:02.299Z,44.00
2019-03-06T09:07:45.136Z,43.63
2019-03-06T09:10:27.010Z,43.14
2019-03-06T09:12:54.632Z,42.55
2019-03-06T09:15:40.618Z,42.34
2019-03-06T09:18:11.358Z,42.16
2019-03-06T09:20:44.174Z,42.33
2019-03-06T09:23:11.829Z,41.84
2019-03-06T09:25:44.509Z,41.30
2019-03-06T09:28:16.380Z,41.24
2019-03-06T09:30:43.332Z,41.01
2019-03-06T09:33:10.274Z,40.97
2019-03-06T09:35:37.887Z,40.97
2019-03-06T09:38:10.922Z,40.95
2019-03-06T09:40:38.417Z,41.50
2019-03-06T09:43:06.729Z,41.51
2019-03-06T09:45:39.442Z,41.69
2019-03-06T09:48:08.963Z,41.66
2019-03-06T09:50:38.801Z,41.86
2019-03-06T09:53:07.679Z,41.96
2019-03-06T09:55:38.652Z,41.27
2019-03-06T10:01:05.598Z,40.72
2019-03-06T10:03:39.618Z,40.59
2019-03-06T10:09:09.231Z,40.23
2019-03-06T10:11:42.255Z,39.88
2019-03-06T10:17:05.634Z,37.35
2019-03-06T10:19:33.166Z,37.54
2019-03-06T10:22:01.031Z,37.35
2019-03-06T10:24:27.981Z,37.52
2019-03-06T10:26:54.944Z,37.20
2019-03-06T10:29:22.194Z,37.08
2019-03-06T10:31:49.236Z,36.88
2019-03-06T10:37:12.332Z,35.89
2019-03-06T10:39:39.314Z,36.36
2019-03-06T10:42:06.367Z,36.38
2019-03-06T10:44:33.435Z,36.00
2019-03-06T10:47:00.498Z,36.03
2019-03-06T10:49:27.511Z,35.49
2019-03-06T10:51:54.574Z,34.94
2019-03-06T10:54:22.183Z,34.30
2019-03-06T10:56:49.614Z,34.01
2019-03-06T10:59:17.062Z,33.63
2019-03-06T11:01:44.526Z,34.31
2019-03-06T11:04:14.534Z,34.65
2019-03-06T11:06:41.956Z,34.69
2019-03-06T11:09:09.654Z,34.42
2019-03-06T11:11:37.104Z,33.00
2019-03-06T11:14:06.400Z,32.20
2019-03-06T11:16:32.447Z,31.17
2019-03-06T11:18:59.908Z,30.70
2019-03-06T11:21:27.484Z,30.62
2019-03-06T11:23:55.016Z,30.45
2019-03-06T11:26:22.416Z,30.07
2019-03-06T11:28:49.860Z,29.80
2019-03-06T11:31:17.316Z,29.48
2019-03-06T11:33:44.718Z,28.75
2019-03-06T11:36:12.145Z,28.17
2019-03-06T11:38:39.610Z,27.43
2019-03-06T11:41:07.064Z,26.92
2019-03-06T11:43:34.674Z,26.62
2019-03-06T11:46:02.143Z,26.24
2019-03-06T11:48:29.803Z,25.99
2019-03-06T11:50:57.249Z,25.76
2019-03-06T11:53:24.918Z,25.80
2019-03-06T11:55:52.344Z,25.89
2019-03-06T11:58:19.816Z,26.14
2019-03-06T12:00:48.004Z,26.90
2019-03-06T12:03:15.540Z,27.62
2019-03-06T12:05:43.027Z,28.12
2019-03-06T12:08:11.205Z,28.38
2019-03-06T12:10:38.635Z,28.79
2019-03-06T12:13:06.851Z,29.21
2019-03-06T12:15:34.335Z,29.35
2019-03-06T12:18:01.820Z,29.29
2019-03-06T12:20:29.402Z,29.70
2019-03-06T12:22:56.812Z,30.08
2019-03-06T12:25:24.506Z,30.05
2019-03-06T12:27:52.066Z,29.81
2019-03-06T12:30:19.509Z,29.73
2019-03-06T12:32:47.192Z,29.61
2019-03-06T12:35:15.785Z,29.64
2019-03-06T12:37:46.958Z,29.86
2019-03-06T12:40:14.723Z,29.68
2019-03-06T12:42:40.369Z,29.57
2019-03-06T12:45:12.197Z,29.73
2019-03-06T12:47:39.952Z,29.45
2019-03-06T12:50:09.888Z,29.25
2019-03-06T12:52:37.630Z,29.71
2019-03-06T12:55:05.310Z,30.33
2019-03-06T12:57:32.719Z,30.38
2019-03-06T13:00:00.256Z,30.36
2019-03-06T13:02:27.555Z,30.31
2019-03-06T13:04:55.067Z,30.75
2019-03-06T13:07:22.513Z,31.11
2019-03-06T13:09:49.966Z,30.72
2019-03-06T13:12:17.390Z,30.70
2019-03-06T13:14:44.889Z,31.08
2019-03-06T13:17:12.501Z,31.86
2019-03-06T13:19:39.953Z,32.72
2019-03-06T13:22:11.391Z,33.24
2019-03-06T13:24:34.908Z,33.77
2019-03-06T13:27:02.348Z,34.34
2019-03-06T13:29:29.767Z,34.35
2019-03-06T13:31:57.348Z,34.60
2019-03-06T13:34:24.892Z,35.04
2019-03-06T13:36:52.310Z,34.82
2019-03-06T13:39:19.822Z,34.63
2019-03-06T13:41:47.222Z,34.78
2019-03-06T13:44:14.656Z,35.24
2019-03-06T13:46:42.178Z,35.33
2019-03-06T13:49:09.712Z,35.71
2019-03-06T13:51:37.244Z,36.05
2019-03-06T13:54:04.681Z,35.68
2019-03-06T13:56:32.231Z,35.19
2019-03-06T13:58:59.729Z,34.57
2019-03-06T14:01:27.201Z,34.10
2019-03-06T14:03:54.674Z,34.08
2019-03-06T14:06:22.134Z,33.72
2019-03-06T14:08:49.572Z,33.64
2019-03-06T14:11:16.979Z,34.02
2019-03-06T14:13:44.936Z,34.02
2019-03-06T14:16:12.404Z,33.73
2019-03-06T14:18:39.835Z,33.80
2019-03-06T14:21:07.278Z,34.24
2019-03-06T14:23:35.433Z,34.41
2019-03-06T14:26:02.229Z,34.68
2019-03-06T14:28:29.864Z,34.13
2019-03-06T14:30:57.423Z,33.70
2019-03-06T14:33:24.877Z,33.62
2019-03-06T14:35:52.299Z,33.73
2019-03-06T14:38:19.788Z,33.92
2019-03-06T14:40:48.421Z,34.11
2019-03-06T14:43:14.702Z,34.13
2019-03-06T14:45:42.296Z,34.19
2019-03-06T14:48:09.761Z,34.33
2019-03-06T14:50:37.207Z,35.00
2019-03-06T14:53:04.849Z,35.70
2019-03-06T14:55:32.297Z,36.12
2019-03-06T14:57:59.805Z,36.66
2019-03-06T15:00:27.218Z,37.00
2019-03-06T15:02:54.716Z,37.68
2019-03-06T15:05:22.418Z,38.04
2019-03-06T15:07:49.842Z,38.08
2019-03-06T15:10:17.333Z,37.82
2019-03-06T15:12:44.783Z,36.99
2019-03-06T15:15:13.106Z,36.64
2019-03-06T15:17:40.701Z,36.92
2019-03-06T15:20:13.320Z,37.49
2019-03-06T15:22:40.806Z,38.26
2019-03-06T15:25:08.294Z,38.53
2019-03-06T15:27:35.708Z,38.89
2019-03-06T15:30:03.123Z,39.22
2019-03-06T15:32:30.742Z,39.48
2019-03-06T15:34:58.201Z,39.89
2019-03-06T15:37:25.716Z,40.57
2019-03-06T15:39:53.150Z,41.27
2019-03-06T15:42:20.584Z,41.87
2019-03-06T15:44:48.026Z,41.98
2019-03-06T15:47:15.432Z,41.71
2019-03-06T15:49:43.239Z,40.96
2019-03-06T15:52:10.646Z,40.52
2019-03-06T15:54:38.074Z,39.59
2019-03-06T15:57:05.532Z,38.76
2019-03-06T15:59:32.936Z,38.53
2019-03-06T16:02:00.654Z,38.26
2019-03-06T16:04:28.220Z,38.23
2019-03-06T16:06:55.694Z,38.44
2019-03-06T16:09:23.111Z,38.57
2019-03-06T16:11:50.669Z,39.01
2019-03-06T16:14:18.202Z,39.56
2019-03-06T16:16:45.627Z,39.70
2019-03-06T16:19:13.243Z,40.03
2019-03-06T16:21:40.741Z,40.32
2019-03-06T16:24:09.764Z,40.62
2019-03-06T16:26:35.791Z,41.04
2019-03-06T16:29:03.207Z,41.33
2019-03-06T16:31:30.620Z,41.57
2019-03-06T16:33:58.160Z,41.81
2019-03-06T16:36:25.568Z,42.32
2019-03-06T16:38:53.114Z,42.51
2019-03-06T16:41:20.508Z,42.52
2019-03-06T16:43:47.952Z,42.43
2019-03-06T16:46:15.872Z,42.69
2019-03-06T16:48:43.336Z,42.53
2019-03-06T16:51:10.755Z,42.35
2019-03-06T16:53:38.177Z,41.90
2019-03-06T16:56:05.666Z,41.26
2019-03-06T16:58:33.108Z,40.68
2019-03-06T17:01:00.555Z,40.35
2019-03-06T17:03:27.967Z,40.04
2019-03-06T17:05:55.476Z,40.01
2019-03-06T17:08:22.944Z,39.87
2019-03-06T17:10:50.339Z,39.75
2019-03-06T17:13:17.751Z,40.31
2019-03-06T17:15:45.253Z,40.98
2019-03-06T17:18:12.711Z,41.50
2019-03-06T17:20:40.297Z,42.04
2019-03-06T17:23:07.727Z,42.20
2019-03-06T17:25:35.226Z,42.32
2019-03-06T17:28:02.641Z,42.50
2019-03-06T17:30:32.294Z,42.75
2019-03-06T17:33:03.905Z,43.02
2019-03-06T17:35:32.278Z,43.04
2019-03-06T17:37:59.686Z,43.21
2019-03-06T17:40:27.120Z,43.36
2019-03-06T17:42:54.610Z,43.20
2019-03-06T17:45:22.030Z,43.05
2019-03-06T17:47:49.505Z,43.10
2019-03-06T17:50:17.079Z,43.17
2019-03-06T17:52:44.642Z,43.01
2019-03-06T17:55:12.293Z,43.40
2019-03-06T17:57:39.836Z,44.00
2019-03-06T18:00:38.995Z,44.51
2019-03-06T18:03:06.593Z,44.42
2019-03-06T18:05:33.999Z,44.59
2019-03-06T18:08:01.459Z,43.96
2019-03-06T18:10:29.046Z,43.34
2019-03-06T18:12:57.556Z,43.07
2019-03-06T18:15:25.011Z,42.95
2019-03-06T18:17:52.933Z,42.97
2019-03-06T18:20:20.404Z,43.19
2019-03-06T18:22:47.886Z,43.15
2019-03-06T18:25:25.763Z,43.01
2019-03-06T18:27:53.231Z,42.60
2019-03-06T18:30:21.030Z,43.04
2019-03-06T18:32:48.475Z,43.88
2019-03-06T18:35:16.865Z,44.77
2019-03-06T18:37:45.491Z,45.25
2019-03-06T18:40:13.859Z,45.31
2019-03-06T18:42:41.424Z,45.51
2019-03-06T18:45:09.832Z,45.00
2019-03-06T18:47:37.278Z,44.27
2019-03-06T18:50:04.736Z,43.92
2019-03-06T18:52:33.031Z,43.79
2019-03-06T18:55:01.423Z,43.56
2019-03-06T18:57:27.843Z,43.58
2019-03-06T18:59:55.263Z,43.82
2019-03-06T19:02:22.700Z,43.95
2019-03-06T19:04:50.482Z,43.56
2019-03-06T19:07:18.713Z,43.13
2019-03-06T19:09:46.267Z,42.66
2019-03-06T19:12:13.675Z,42.24
2019-03-06T19:14:42.507Z,42.01
2019-03-06T19:17:08.569Z,41.92
2019-03-06T19:19:35.989Z,41.86
2019-03-06T19:22:03.471Z,41.79
2019-03-06T19:24:30.872Z,41.73
2019-03-06T19:26:58.309Z,41.62
2019-03-06T19:29:25.710Z,41.94
2019-03-06T19:31:53.216Z,41.79
2019-03-06T19:34:21.144Z,41.78
2019-03-06T19:36:48.630Z,41.97
2019-03-06T19:39:16.056Z,42.01
2019-03-06T19:41:43.476Z,42.13
2019-03-06T19:44:11.006Z,42.03
2019-03-06T19:46:38.470Z,42.40
2019-03-06T19:49:05.948Z,42.71
2019-03-06T19:51:33.380Z,42.72
2019-03-06T19:54:01.043Z,42.89
2019-03-06T19:56:28.517Z,43.16
2019-03-06T19:58:55.985Z,43.31
2019-03-06T20:01:23.424Z,43.66
2019-03-06T20:03:50.871Z,43.84
2019-03-06T20:06:26.741Z,43.80
2019-03-06T20:08:45.719Z,43.55
2019-03-06T20:11:13.166Z,43.23
2019-03-06T20:13:40.602Z,42.82
2019-03-06T20:16:08.075Z,42.98
2019-03-06T20:18:35.497Z,43.77
2019-03-06T20:21:03.049Z,43.93
2019-03-06T20:23:30.534Z,44.01
2019-03-06T20:25:57.977Z,44.13
2019-03-06T20:28:25.411Z,43.91
2019-03-06T20:30:52.849Z,43.64
2019-03-06T20:33:20.486Z,43.37
2019-03-06T20:35:47.999Z,43.64
2019-03-06T20:38:15.448Z,43.82
2019-03-06T20:40:42.850Z,43.71
2019-03-06T20:43:10.283Z,43.60
2019-03-06T20:45:37.837Z,43.91
2019-03-06T20:48:05.263Z,43.93
2019-03-06T20:50:34.570Z,43.79
2019-03-06T20:53:00.152Z,43.84
2019-03-06T20:55:27.671Z,43.94
2019-03-06T20:57:55.095Z,43.69
2019-03-06T21:00:24.153Z,43.75
2019-03-06T21:02:51.578Z,43.62
2019-03-06T21:05:19.031Z,43.11
2019-03-06T21:07:46.493Z,43.04
2019-03-06T21:10:18.572Z,43.25
2019-03-06T21:12:46.022Z,43.95
2019-03-06T21:15:14.343Z,44.20
2019-03-06T21:17:41.758Z,44.54
2019-03-06T21:20:17.783Z,44.62
2019-03-06T21:22:45.265Z,44.61
2019-03-06T21:25:12.766Z,44.72
2019-03-06T21:27:40.200Z,45.04
2019-03-06T21:30:08.509Z,46.02
2019-03-06T21:32:35.937Z,47.24
2019-03-06T21:35:03.471Z,47.68
2019-03-06T21:37:30.886Z,47.68
2019-03-06T21:39:58.689Z,47.41
2019-03-06T21:42:26.271Z,47.14
2019-03-06T21:44:53.853Z,46.88
2019-03-06T21:47:21.381Z,46.73
2019-03-06T21:49:48.969Z,46.50
2019-03-06T21:52:16.388Z,46.27
2019-03-06T21:54:43.812Z,46.05
2019-03-06T21:57:11.758Z,45.75
2019-03-06T21:59:39.201Z,45.83
2019-03-06T22:02:06.660Z,45.81
2019-03-06T22:04:34.052Z,45.78
2019-03-06T22:07:01.504Z,46.06
2019-03-06T22:09:28.985Z,46.83
2019-03-06T22:11:56.405Z,47.45
2019-03-06T22:14:23.945Z,47.89
2019-03-06T22:16:51.485Z,48.37
2019-03-06T22:19:19.005Z,48.80
2019-03-06T22:21:46.517Z,49.71
2019-03-06T22:24:14.095Z,50.10
2019-03-06T22:26:41.504Z,50.29
2019-03-06T22:29:08.968Z,50.24
2019-03-06T22:31:36.382Z,49.90
2019-03-06T22:34:03.823Z,49.46
2019-03-06T22:36:31.226Z,49.92
2019-03-06T22:38:59.111Z,50.26
2019-03-06T22:41:27.282Z,50.02
2019-03-06T22:43:54.765Z,49.95
2019-03-06T22:46:22.163Z,50.25
2019-03-06T22:48:49.585Z,49.97
2019-03-06T22:51:17.077Z,50.23
2019-03-06T22:53:44.504Z,50.52
2019-03-06T22:56:11.926Z,50.51
2019-03-06T22:58:39.344Z,50.31
2019-03-06T23:01:07.347Z,50.11
2019-03-06T23:03:34.802Z,50.18
2019-03-06T23:06:02.259Z,50.53
2019-03-06T23:08:29.670Z,51.01
2019-03-06T23:10:57.089Z,51.59
2019-03-06T23:13:24.500Z,52.10
2019-03-06T23:15:51.910Z,52.14
2019-03-06T23:18:19.341Z,51.86
2019-03-06T23:20:46.744Z,51.49
2019-03-06T23:23:14.183Z,51.24
2019-03-06T23:25:41.611Z,51.05
2019-03-06T23:28:09.007Z,50.88
2019-03-06T23:30:36.498Z,51.02
2019-03-06T23:33:03.931Z,51.09
2019-03-06T23:35:31.345Z,51.88
2019-03-06T23:37:58.781Z,52.43
2019-03-06T23:40:26.178Z,52.82
2019-03-06T23:42:53.711Z,53.02
2019-03-06T23:45:21.157Z,53.05
2019-03-06T23:47:48.560Z,52.84
2019-03-06T23:50:15.976Z,52.87
2019-03-06T23:52:49.089Z,52.70
2019-03-06T23:55:16.516Z,52.67
2019-03-06T23:57:43.933Z,52.57
